createdAt,value
2017-07-05T00:00:17.964Z,999.1
2017-07-05T00:00:38.232Z,999.1
2017-07-05T00:00:58.534Z,999.1
2017-07-05T00:01:18.802Z,999.1
2017-07-05T00:01:39.078Z,999
2017-07-05T00:01:59.393Z,999
2017-07-05T00:02:19.743Z,999
2017-07-05T00:02:40.741Z,999
2017-07-05T00:03:01.067Z,999.1
2017-07-05T00:03:21.342Z,999
2017-07-05T00:03:41.338Z,999
2017-07-05T00:04:02.316Z,999
2017-07-05T00:04:23.192Z,999
2017-07-05T00:04:44.312Z,999.1
2017-07-05T00:05:04.635Z,999
2017-07-05T00:05:25.742Z,999
2017-07-05T00:05:46.340Z,999
2017-07-05T00:06:06.592Z,999
2017-07-05T00:06:26.882Z,999.1
2017-07-05T00:06:47.179Z,999.1
2017-07-05T00:07:07.492Z,999
2017-07-05T00:07:27.836Z,999.1
2017-07-05T00:07:48.807Z,999.1
2017-07-05T00:08:09.847Z,999
2017-07-05T00:08:30.119Z,999
2017-07-05T00:08:50.434Z,999
2017-07-05T00:09:10.695Z,999
2017-07-05T00:09:30.971Z,999
2017-07-05T00:09:51.816Z,999
2017-07-05T00:10:12.082Z,999
2017-07-05T00:10:32.078Z,999
2017-07-05T00:10:52.890Z,999
2017-07-05T00:11:13.169Z,999
2017-07-05T00:11:33.415Z,999
2017-07-05T00:11:53.718Z,999
2017-07-05T00:12:13.971Z,999
2017-07-05T00:12:34.236Z,999
2017-07-05T00:12:54.555Z,999
2017-07-05T00:13:14.828Z,999
2017-07-05T00:13:35.103Z,999
2017-07-05T00:13:56.361Z,999
2017-07-05T00:14:16.672Z,998.9
2017-07-05T00:14:37.855Z,999
2017-07-05T00:14:58.284Z,999
2017-07-05T00:15:18.555Z,999
2017-07-05T00:15:38.861Z,998.9
2017-07-05T00:15:59.790Z,999
2017-07-05T00:16:20.716Z,999
2017-07-05T00:16:41.067Z,999
2017-07-05T00:17:01.375Z,998.9
2017-07-05T00:17:21.652Z,999
2017-07-05T00:17:41.919Z,999
2017-07-05T00:18:02.747Z,998.9
2017-07-05T00:18:23.051Z,999
2017-07-05T00:18:43.859Z,999
2017-07-05T00:19:04.783Z,999
2017-07-05T00:19:25.668Z,999
2017-07-05T00:19:45.938Z,999
2017-07-05T00:20:06.283Z,999
2017-07-05T00:20:27.210Z,999
2017-07-05T00:20:48.856Z,999
2017-07-05T00:21:09.165Z,999
2017-07-05T00:21:30.225Z,999
2017-07-05T00:21:50.497Z,999
2017-07-05T00:22:11.340Z,999
2017-07-05T00:22:32.226Z,999
2017-07-05T00:22:52.538Z,999
2017-07-05T00:23:12.828Z,999
2017-07-05T00:23:33.697Z,999
2017-07-05T00:23:53.997Z,999
2017-07-05T00:24:14.301Z,999
2017-07-05T00:24:34.580Z,999
2017-07-05T00:24:55.779Z,999
2017-07-05T00:25:16.041Z,998.9
2017-07-05T00:25:37.326Z,998.9
2017-07-05T00:25:57.588Z,999
2017-07-05T00:26:18.368Z,998.9
2017-07-05T00:26:38.689Z,998.9
2017-07-05T00:26:58.952Z,998.9
2017-07-05T00:27:19.216Z,999
2017-07-05T00:27:39.485Z,998.9
2017-07-05T00:27:59.849Z,999
2017-07-05T00:28:20.259Z,998.9
2017-07-05T00:28:40.527Z,999
2017-07-05T00:29:00.794Z,998.9
2017-07-05T00:29:21.073Z,998.9
2017-07-05T00:29:42.263Z,998.9
2017-07-05T00:30:02.518Z,998.9
2017-07-05T00:30:23.420Z,998.9
2017-07-05T00:30:43.754Z,998.9
2017-07-05T00:31:04.109Z,998.9
2017-07-05T00:31:24.374Z,998.9
2017-07-05T00:31:44.679Z,998.9
2017-07-05T00:32:05.016Z,998.9
2017-07-05T00:32:25.290Z,998.9
2017-07-05T00:32:45.557Z,998.9
2017-07-05T00:33:05.818Z,998.9
2017-07-05T00:33:26.208Z,998.9
2017-07-05T00:33:46.510Z,998.9
2017-07-05T00:34:06.761Z,998.9
2017-07-05T00:34:27.030Z,998.9
2017-07-05T00:34:47.306Z,998.9
2017-07-05T00:35:07.616Z,998.8
2017-07-05T00:35:28.703Z,998.9
2017-07-05T00:35:49.903Z,998.9
2017-07-05T00:36:10.846Z,998.9
2017-07-05T00:36:31.109Z,998.8
2017-07-05T00:36:51.380Z,998.9
2017-07-05T00:37:11.641Z,998.9
2017-07-05T00:37:31.940Z,998.9
2017-07-05T00:37:52.242Z,998.9
2017-07-05T00:38:13.245Z,998.9
2017-07-05T00:38:33.548Z,998.9
2017-07-05T00:38:53.864Z,998.9
2017-07-05T00:39:15.395Z,998.9
2017-07-05T00:39:35.665Z,998.9
2017-07-05T00:39:55.934Z,998.9
2017-07-05T00:40:16.241Z,998.9
2017-07-05T00:40:37.326Z,998.8
2017-07-05T00:40:57.588Z,998.9
2017-07-05T00:41:17.912Z,998.9
2017-07-05T00:41:39.768Z,998.9
2017-07-05T00:42:00.047Z,998.9
2017-07-05T00:42:21.293Z,998.9
2017-07-05T00:42:41.607Z,998.8
2017-07-05T00:43:01.908Z,998.8
2017-07-05T00:43:22.765Z,998.8
2017-07-05T00:43:43.762Z,998.8
2017-07-05T00:44:04.042Z,998.9
2017-07-05T00:44:25.357Z,998.8
2017-07-05T00:44:46.189Z,998.8
2017-07-05T00:45:06.477Z,998.8
2017-07-05T00:45:26.776Z,998.8
2017-07-05T00:45:47.078Z,998.8
2017-07-05T00:46:07.352Z,998.8
2017-07-05T00:46:27.644Z,998.8
2017-07-05T00:46:47.960Z,998.8
2017-07-05T00:47:09.880Z,998.8
2017-07-05T00:47:30.242Z,998.8
2017-07-05T00:47:50.548Z,998.8
2017-07-05T00:48:10.837Z,998.8
2017-07-05T00:48:31.211Z,998.8
2017-07-05T00:48:51.492Z,998.8
2017-07-05T00:49:12.785Z,998.8
2017-07-05T00:49:33.868Z,998.8
2017-07-05T00:49:54.145Z,998.8
2017-07-05T00:50:14.478Z,998.8
2017-07-05T00:50:34.791Z,998.8
2017-07-05T00:50:55.065Z,998.8
2017-07-05T00:51:15.063Z,998.8
2017-07-05T00:51:35.339Z,998.8
2017-07-05T00:51:55.646Z,998.8
2017-07-05T00:52:15.915Z,998.8
2017-07-05T00:52:36.205Z,998.8
2017-07-05T00:52:57.366Z,998.8
2017-07-05T00:53:17.623Z,998.8
2017-07-05T00:53:37.904Z,998.8
2017-07-05T00:53:58.181Z,998.8
2017-07-05T00:54:18.491Z,998.8
2017-07-05T00:54:38.791Z,998.8
2017-07-05T00:54:59.062Z,998.8
2017-07-05T00:55:19.327Z,998.8
2017-07-05T00:55:39.650Z,998.8
2017-07-05T00:55:59.931Z,998.8
2017-07-05T00:56:20.178Z,998.8
2017-07-05T00:56:40.509Z,998.8
2017-07-05T00:57:00.786Z,998.7
2017-07-05T00:57:21.110Z,998.8
2017-07-05T00:57:41.438Z,998.7
2017-07-05T00:58:01.776Z,998.7
2017-07-05T00:58:22.089Z,998.7
2017-07-05T00:58:42.381Z,998.7
2017-07-05T00:59:03.420Z,998.7
2017-07-05T00:59:24.421Z,998.7
2017-07-05T00:59:44.742Z,998.7
2017-07-05T01:00:05.888Z,998.7
2017-07-05T01:00:26.205Z,998.7
2017-07-05T01:00:46.555Z,998.7
2017-07-05T01:01:06.873Z,998.7
2017-07-05T01:01:27.155Z,998.7
2017-07-05T01:01:47.439Z,998.6
2017-07-05T01:02:07.773Z,998.7
2017-07-05T01:02:28.093Z,998.7
2017-07-05T01:02:48.426Z,998.6
2017-07-05T01:03:08.699Z,998.7
2017-07-05T01:03:28.989Z,998.6
2017-07-05T01:03:49.261Z,998.7
2017-07-05T01:04:09.539Z,998.7
2017-07-05T01:04:29.860Z,998.7
2017-07-05T01:04:50.180Z,998.7
2017-07-05T01:05:10.462Z,998.7
2017-07-05T01:05:31.422Z,998.6
2017-07-05T01:05:51.699Z,998.6
2017-07-05T01:06:11.969Z,998.6
2017-07-05T01:06:32.244Z,998.6
2017-07-05T01:06:52.577Z,998.6
2017-07-05T01:07:12.847Z,998.6
2017-07-05T01:07:33.147Z,998.6
2017-07-05T01:07:53.417Z,998.6
2017-07-05T01:08:13.691Z,998.6
2017-07-05T01:08:33.965Z,998.6
2017-07-05T01:08:54.254Z,998.6
2017-07-05T01:09:14.559Z,998.6
2017-07-05T01:09:34.834Z,998.6
2017-07-05T01:09:55.149Z,998.6
2017-07-05T01:10:16.317Z,998.6
2017-07-05T01:10:37.331Z,998.6
2017-07-05T01:10:57.698Z,998.6
2017-07-05T01:11:18.939Z,998.6
2017-07-05T01:11:39.896Z,998.6
2017-07-05T01:12:00.233Z,998.6
2017-07-05T01:12:20.595Z,998.6
2017-07-05T01:12:40.854Z,998.6
2017-07-05T01:13:01.125Z,998.5
2017-07-05T01:13:21.434Z,998.5
2017-07-05T01:13:42.245Z,998.6
2017-07-05T01:14:03.209Z,998.6
2017-07-05T01:14:24.239Z,998.5
2017-07-05T01:14:44.575Z,998.6
2017-07-05T01:15:04.868Z,998.6
2017-07-05T01:15:26.808Z,998.6
2017-07-05T01:15:47.189Z,998.6
2017-07-05T01:16:07.460Z,998.6
2017-07-05T01:16:28.340Z,998.5
2017-07-05T01:16:48.352Z,998.6
2017-07-05T01:17:08.670Z,998.6
2017-07-05T01:17:28.985Z,998.6
2017-07-05T01:17:49.929Z,998.6
2017-07-05T01:18:10.229Z,998.6
2017-07-05T01:18:30.499Z,998.6
2017-07-05T01:18:50.524Z,998.6
2017-07-05T01:19:10.851Z,998.6
2017-07-05T01:19:31.170Z,998.6
2017-07-05T01:19:52.233Z,998.6
2017-07-05T01:20:12.569Z,998.5
2017-07-05T01:20:33.816Z,998.6
2017-07-05T01:20:53.814Z,998.6
2017-07-05T01:21:14.132Z,998.6
2017-07-05T01:21:34.461Z,998.6
2017-07-05T01:21:54.824Z,998.6
2017-07-05T01:22:15.146Z,998.6
2017-07-05T01:22:35.420Z,998.6
2017-07-05T01:22:55.725Z,998.6
2017-07-05T01:23:15.722Z,998.6
2017-07-05T01:23:36.893Z,998.6
2017-07-05T01:23:57.169Z,998.6
2017-07-05T01:24:17.446Z,998.6
2017-07-05T01:24:37.729Z,998.6
2017-07-05T01:24:58.027Z,998.6
2017-07-05T01:25:18.905Z,998.6
2017-07-05T01:25:39.237Z,998.6
2017-07-05T01:25:59.511Z,998.5
2017-07-05T01:26:21.405Z,998.5
2017-07-05T01:26:41.733Z,998.5
2017-07-05T01:27:02.085Z,998.5
2017-07-05T01:27:22.357Z,998.5
2017-07-05T01:27:42.676Z,998.5
2017-07-05T01:28:04.405Z,998.6
2017-07-05T01:28:24.669Z,998.5
2017-07-05T01:28:44.956Z,998.5
2017-07-05T01:29:05.298Z,998.5
2017-07-05T01:29:25.600Z,998.5
2017-07-05T01:29:45.882Z,998.5
2017-07-05T01:30:06.158Z,998.5
2017-07-05T01:30:26.437Z,998.5
2017-07-05T01:30:46.713Z,998.5
2017-07-05T01:31:06.987Z,998.5
2017-07-05T01:31:27.385Z,998.5
2017-07-05T01:31:47.662Z,998.5
2017-07-05T01:32:08.270Z,998.5
2017-07-05T01:32:29.348Z,998.5
2017-07-05T01:32:49.675Z,998.5
2017-07-05T01:33:10.034Z,998.5
2017-07-05T01:33:32.442Z,998.5
2017-07-05T01:33:53.912Z,998.5
2017-07-05T01:34:14.255Z,998.5
2017-07-05T01:34:34.526Z,998.5
2017-07-05T01:34:55.417Z,998.5
2017-07-05T01:35:16.738Z,998.5
2017-07-05T01:35:37.858Z,998.5
2017-07-05T01:35:58.848Z,998.5
2017-07-05T01:36:18.849Z,998.4
2017-07-05T01:36:40.361Z,998.5
2017-07-05T01:37:01.052Z,998.5
2017-07-05T01:37:21.369Z,998.5
2017-07-05T01:37:41.687Z,998.5
2017-07-05T01:38:02.815Z,998.5
2017-07-05T01:38:23.086Z,998.5
2017-07-05T01:38:43.959Z,998.4
2017-07-05T01:39:04.231Z,998.5
2017-07-05T01:39:24.538Z,998.4
2017-07-05T01:39:44.816Z,998.4
2017-07-05T01:40:05.807Z,998.4
2017-07-05T01:40:26.092Z,998.4
2017-07-05T01:40:46.363Z,998.5
2017-07-05T01:41:07.414Z,998.4
2017-07-05T01:41:27.794Z,998.4
2017-07-05T01:41:48.173Z,998.4
2017-07-05T01:42:08.441Z,998.4
2017-07-05T01:42:28.710Z,998.4
2017-07-05T01:42:49.761Z,998.4
2017-07-05T01:43:10.078Z,998.4
2017-07-05T01:43:30.353Z,998.4
2017-07-05T01:43:51.360Z,998.4
2017-07-05T01:44:12.272Z,998.4
2017-07-05T01:44:33.419Z,998.4
2017-07-05T01:44:53.761Z,998.4
2017-07-05T01:45:14.902Z,998.4
2017-07-05T01:45:36.355Z,998.4
2017-07-05T01:45:56.679Z,998.3
2017-07-05T01:46:18.372Z,998.4
2017-07-05T01:46:38.672Z,998.4
2017-07-05T01:47:00.421Z,998.4
2017-07-05T01:47:22.327Z,998.4
2017-07-05T01:47:42.616Z,998.4
2017-07-05T01:48:03.919Z,998.4
2017-07-05T01:48:24.209Z,998.4
2017-07-05T01:48:44.536Z,998.4
2017-07-05T01:49:04.807Z,998.3
2017-07-05T01:49:25.951Z,998.4
2017-07-05T01:49:46.920Z,998.4
2017-07-05T01:50:07.255Z,998.4
2017-07-05T01:50:28.902Z,998.3
2017-07-05T01:50:49.204Z,998.3
2017-07-05T01:51:09.496Z,998.3
2017-07-05T01:51:31.961Z,998.3
2017-07-05T01:51:52.239Z,998.3
2017-07-05T01:52:12.518Z,998.4
2017-07-05T01:52:33.345Z,998.3
2017-07-05T01:52:54.471Z,998.3
2017-07-05T01:53:16.377Z,998.3
2017-07-05T01:53:36.708Z,998.3
2017-07-05T01:53:57.925Z,998.3
2017-07-05T01:54:18.245Z,998.3
2017-07-05T01:54:39.452Z,998.3
2017-07-05T01:54:59.750Z,998.3
2017-07-05T01:55:20.058Z,998.3
2017-07-05T01:55:41.362Z,998.3
2017-07-05T01:56:01.635Z,998.3
2017-07-05T01:56:22.426Z,998.3
2017-07-05T01:56:43.879Z,998.3
2017-07-05T01:57:04.148Z,998.3
2017-07-05T01:57:25.928Z,998.3
2017-07-05T01:57:46.306Z,998.3
2017-07-05T01:58:06.579Z,998.3
2017-07-05T01:58:26.855Z,998.3
2017-07-05T01:58:47.212Z,998.3
2017-07-05T01:59:07.526Z,998.3
2017-07-05T01:59:27.795Z,998.3
2017-07-05T01:59:48.101Z,998.4
2017-07-05T02:00:08.930Z,998.3
2017-07-05T02:00:29.237Z,998.4
2017-07-05T02:00:49.519Z,998.3
2017-07-05T02:01:09.787Z,998.3
2017-07-05T02:01:29.793Z,998.3
2017-07-05T02:01:50.068Z,998.3
2017-07-05T02:02:10.389Z,998.3
2017-07-05T02:02:30.681Z,998.3
2017-07-05T02:02:50.956Z,998.3
2017-07-05T02:03:11.233Z,998.3
2017-07-05T02:03:33.343Z,998.3
2017-07-05T02:03:54.370Z,998.3
2017-07-05T02:04:15.380Z,998.3
2017-07-05T02:04:36.363Z,998.3
2017-07-05T02:04:56.684Z,998.3
2017-07-05T02:05:17.030Z,998.3
2017-07-05T02:05:37.346Z,998.3
2017-07-05T02:05:57.345Z,998.3
2017-07-05T02:06:17.633Z,998.3
2017-07-05T02:06:37.631Z,998.3
2017-07-05T02:06:57.953Z,998.3
2017-07-05T02:07:18.238Z,998.3
2017-07-05T02:07:39.019Z,998.3
2017-07-05T02:07:59.293Z,998.2
2017-07-05T02:08:19.577Z,998.2
2017-07-05T02:08:39.588Z,998.3
2017-07-05T02:08:59.950Z,998.2
2017-07-05T02:09:20.212Z,998.2
2017-07-05T02:09:40.476Z,998.2
2017-07-05T02:10:00.496Z,998.2
2017-07-05T02:10:20.838Z,998.3
2017-07-05T02:10:41.125Z,998.2
2017-07-05T02:11:01.385Z,998.2
2017-07-05T02:11:21.664Z,998.2
2017-07-05T02:11:41.927Z,998.2
2017-07-05T02:12:02.212Z,998.3
2017-07-05T02:12:23.446Z,998.2
2017-07-05T02:12:43.724Z,998.2
2017-07-05T02:13:04.783Z,998.3
2017-07-05T02:13:26.434Z,998.3
2017-07-05T02:13:47.480Z,998.3
2017-07-05T02:14:08.482Z,998.3
2017-07-05T02:14:28.786Z,998.3
2017-07-05T02:14:49.059Z,998.3
2017-07-05T02:15:10.335Z,998.3
2017-07-05T02:15:30.635Z,998.3
2017-07-05T02:15:50.962Z,998.3
2017-07-05T02:16:11.229Z,998.3
2017-07-05T02:16:31.522Z,998.3
2017-07-05T02:16:52.821Z,998.3
2017-07-05T02:17:13.176Z,998.3
2017-07-05T02:17:33.455Z,998.2
2017-07-05T02:17:53.794Z,998.3
2017-07-05T02:18:14.113Z,998.2
2017-07-05T02:18:34.407Z,998.2
2017-07-05T02:18:55.482Z,998.2
2017-07-05T02:19:15.806Z,998.2
2017-07-05T02:19:36.944Z,998.2
2017-07-05T02:19:57.261Z,998.2
2017-07-05T02:20:17.531Z,998.2
2017-07-05T02:20:37.812Z,998.2
2017-07-05T02:20:58.074Z,998.2
2017-07-05T02:21:18.394Z,998.2
2017-07-05T02:21:38.667Z,998.2
2017-07-05T02:21:58.993Z,998.2
2017-07-05T02:22:19.301Z,998.2
2017-07-05T02:22:40.321Z,998.2
2017-07-05T02:23:00.688Z,998.1
2017-07-05T02:23:20.990Z,998.2
2017-07-05T02:23:41.265Z,998.1
2017-07-05T02:24:01.637Z,998.1
2017-07-05T02:24:21.985Z,998.2
2017-07-05T02:24:42.298Z,998.1
2017-07-05T02:25:03.265Z,998.1
2017-07-05T02:25:23.621Z,998.1
2017-07-05T02:25:43.971Z,998.2
2017-07-05T02:26:04.243Z,998.1
2017-07-05T02:26:24.596Z,998.2
2017-07-05T02:26:44.849Z,998.2
2017-07-05T02:27:05.128Z,998.2
2017-07-05T02:27:25.396Z,998.2
2017-07-05T02:27:45.730Z,998.2
2017-07-05T02:28:06.881Z,998.2
2017-07-05T02:28:27.197Z,998.2
2017-07-05T02:28:48.297Z,998.2
2017-07-05T02:29:09.395Z,998.2
2017-07-05T02:29:30.034Z,998.2
2017-07-05T02:29:51.362Z,998.2
2017-07-05T02:30:11.625Z,998.2
2017-07-05T02:30:31.643Z,998.2
2017-07-05T02:30:51.957Z,998.2
2017-07-05T02:31:12.251Z,998.1
2017-07-05T02:31:33.385Z,998.2
2017-07-05T02:31:54.269Z,998.2
2017-07-05T02:32:14.546Z,998.2
2017-07-05T02:32:35.387Z,998.2
2017-07-05T02:32:56.443Z,998.2
2017-07-05T02:33:16.709Z,998.2
2017-07-05T02:33:37.883Z,998.2
2017-07-05T02:33:58.241Z,998.2
2017-07-05T02:34:18.486Z,998.2
2017-07-05T02:34:38.750Z,998.2
2017-07-05T02:34:59.067Z,998.2
2017-07-05T02:35:19.386Z,998.2
2017-07-05T02:35:40.415Z,998.2
2017-07-05T02:36:00.734Z,998.2
2017-07-05T02:36:20.998Z,998.2
2017-07-05T02:36:41.288Z,998.2
2017-07-05T02:37:01.601Z,998.2
2017-07-05T02:37:21.922Z,998.2
2017-07-05T02:37:42.185Z,998.2
2017-07-05T02:38:02.543Z,998.2
2017-07-05T02:38:22.848Z,998.2
2017-07-05T02:38:43.157Z,998.2
2017-07-05T02:39:03.501Z,998.2
2017-07-05T02:39:23.772Z,998.2
2017-07-05T02:39:44.956Z,998.2
2017-07-05T02:40:05.270Z,998.2
2017-07-05T02:40:25.566Z,998.2
2017-07-05T02:40:45.846Z,998.2
2017-07-05T02:41:06.209Z,998.2
2017-07-05T02:41:26.505Z,998.2
2017-07-05T02:41:46.773Z,998.2
2017-07-05T02:42:08.957Z,998.2
2017-07-05T02:42:29.283Z,998.3
2017-07-05T02:42:49.294Z,998.2
2017-07-05T02:43:09.604Z,998.2
2017-07-05T02:43:29.600Z,998.2
2017-07-05T02:43:49.921Z,998.2
2017-07-05T02:44:10.263Z,998.3
2017-07-05T02:44:30.591Z,998.3
2017-07-05T02:44:51.398Z,998.2
2017-07-05T02:45:11.692Z,998.3
2017-07-05T02:45:32.005Z,998.2
2017-07-05T02:45:52.279Z,998.2
2017-07-05T02:46:12.557Z,998.3
2017-07-05T02:46:32.826Z,998.3
2017-07-05T02:46:54.492Z,998.2
2017-07-05T02:47:16.490Z,998.3
2017-07-05T02:47:36.781Z,998.3
2017-07-05T02:47:57.129Z,998.3
2017-07-05T02:48:17.397Z,998.2
2017-07-05T02:48:37.710Z,998.3
2017-07-05T02:48:57.998Z,998.3
2017-07-05T02:49:18.267Z,998.2
2017-07-05T02:49:38.554Z,998.2
2017-07-05T02:49:58.832Z,998.3
2017-07-05T02:50:19.114Z,998.2
2017-07-05T02:50:39.433Z,998.2
2017-07-05T02:50:59.706Z,998.2
2017-07-05T02:51:20.948Z,998.2
2017-07-05T02:51:41.273Z,998.2
2017-07-05T02:52:01.636Z,998.2
2017-07-05T02:52:21.932Z,998.3
2017-07-05T02:52:42.218Z,998.2
2017-07-05T02:53:02.500Z,998.2
2017-07-05T02:53:22.789Z,998.2
2017-07-05T02:53:43.121Z,998.2
2017-07-05T02:54:03.412Z,998.2
2017-07-05T02:54:23.686Z,998.2
2017-07-05T02:54:45.502Z,998.2
2017-07-05T02:55:07.015Z,998.2
2017-07-05T02:55:27.310Z,998.2
2017-07-05T02:55:47.589Z,998.2
2017-07-05T02:56:07.862Z,998.2
2017-07-05T02:56:28.132Z,998.2
2017-07-05T02:56:48.158Z,998.2
2017-07-05T02:57:08.491Z,998.2
2017-07-05T02:57:28.824Z,998.2
2017-07-05T02:57:49.956Z,998.2
2017-07-05T02:58:10.794Z,998.2
2017-07-05T02:58:31.074Z,998.2
2017-07-05T02:58:51.348Z,998.2
2017-07-05T02:59:11.684Z,998.2
2017-07-05T02:59:31.955Z,998.2
2017-07-05T02:59:52.231Z,998.2
2017-07-05T03:00:12.515Z,998.2
2017-07-05T03:00:32.779Z,998.1
2017-07-05T03:00:53.048Z,998.2
2017-07-05T03:01:13.316Z,998.2
2017-07-05T03:01:33.590Z,998.2
2017-07-05T03:01:53.905Z,998.2
2017-07-05T03:02:14.883Z,998.2
2017-07-05T03:02:35.183Z,998.1
2017-07-05T03:02:55.454Z,998.1
2017-07-05T03:03:15.773Z,998.2
2017-07-05T03:03:36.099Z,998.2
2017-07-05T03:03:56.445Z,998.1
2017-07-05T03:04:16.766Z,998.2
2017-07-05T03:04:37.037Z,998.1
2017-07-05T03:04:57.904Z,998.2
2017-07-05T03:05:18.229Z,998.1
2017-07-05T03:05:38.498Z,998.1
2017-07-05T03:05:59.977Z,998.2
2017-07-05T03:06:20.322Z,998.1
2017-07-05T03:06:41.330Z,998.2
2017-07-05T03:07:01.613Z,998.1
2017-07-05T03:07:21.924Z,998.2
2017-07-05T03:07:42.315Z,998.2
2017-07-05T03:08:02.689Z,998.2
2017-07-05T03:08:22.974Z,998.1
2017-07-05T03:08:43.254Z,998.1
2017-07-05T03:09:03.534Z,998.2
2017-07-05T03:09:26.426Z,998.1
2017-07-05T03:09:47.339Z,998.2
2017-07-05T03:10:07.687Z,998.2
2017-07-05T03:10:27.977Z,998.1
2017-07-05T03:10:48.787Z,998.1
2017-07-05T03:11:09.068Z,998.1
2017-07-05T03:11:30.309Z,998.2
2017-07-05T03:11:50.587Z,998.2
2017-07-05T03:12:10.857Z,998.2
2017-07-05T03:12:32.513Z,998.2
2017-07-05T03:12:52.509Z,998.2
2017-07-05T03:13:12.856Z,998.2
2017-07-05T03:13:33.127Z,998.2
2017-07-05T03:13:53.402Z,998.2
2017-07-05T03:14:14.333Z,998.1
2017-07-05T03:14:34.629Z,998.2
2017-07-05T03:14:54.900Z,998.2
2017-07-05T03:15:15.181Z,998.2
2017-07-05T03:15:35.482Z,998.2
2017-07-05T03:15:55.775Z,998.1
2017-07-05T03:16:16.818Z,998.1
2017-07-05T03:16:37.085Z,998.2
2017-07-05T03:16:57.396Z,998.2
2017-07-05T03:17:17.709Z,998.1
2017-07-05T03:17:38.030Z,998.1
2017-07-05T03:17:58.028Z,998.1
2017-07-05T03:18:18.297Z,998.1
2017-07-05T03:18:38.605Z,998.1
2017-07-05T03:18:58.887Z,998.1
2017-07-05T03:19:20.009Z,998.1
2017-07-05T03:19:40.868Z,998.1
2017-07-05T03:20:01.153Z,998.1
2017-07-05T03:20:21.477Z,998.1
2017-07-05T03:20:42.302Z,998.1
2017-07-05T03:21:02.588Z,998.1
2017-07-05T03:21:22.859Z,998
2017-07-05T03:21:43.920Z,998
2017-07-05T03:22:04.186Z,998
2017-07-05T03:22:24.509Z,998
2017-07-05T03:22:44.869Z,998
2017-07-05T03:23:05.140Z,998
2017-07-05T03:23:25.417Z,998
2017-07-05T03:23:45.785Z,998
2017-07-05T03:24:06.111Z,998
2017-07-05T03:24:26.398Z,998
2017-07-05T03:24:46.393Z,998
2017-07-05T03:25:07.956Z,998
2017-07-05T03:25:28.317Z,998
2017-07-05T03:25:49.578Z,998
2017-07-05T03:26:10.928Z,998
2017-07-05T03:26:30.972Z,998
2017-07-05T03:26:51.253Z,998
2017-07-05T03:27:11.529Z,998
2017-07-05T03:27:31.851Z,998
2017-07-05T03:27:52.129Z,998
2017-07-05T03:28:12.396Z,998
2017-07-05T03:28:32.715Z,998
2017-07-05T03:28:53.008Z,998
2017-07-05T03:29:13.278Z,998
2017-07-05T03:29:33.569Z,998
2017-07-05T03:29:53.824Z,998
2017-07-05T03:30:14.194Z,998
2017-07-05T03:30:35.401Z,997.9
2017-07-05T03:30:55.679Z,998
2017-07-05T03:31:15.680Z,998
2017-07-05T03:31:35.969Z,997.9
2017-07-05T03:31:56.264Z,997.9
2017-07-05T03:32:16.541Z,997.9
2017-07-05T03:32:36.860Z,997.9
2017-07-05T03:32:57.175Z,997.9
2017-07-05T03:33:19.129Z,997.9
2017-07-05T03:33:40.627Z,997.9
2017-07-05T03:34:00.940Z,997.9
2017-07-05T03:34:21.893Z,997.9
2017-07-05T03:34:42.995Z,997.9
2017-07-05T03:35:03.328Z,997.9
2017-07-05T03:35:23.651Z,997.9
2017-07-05T03:35:45.455Z,997.9
2017-07-05T03:36:05.764Z,997.8
2017-07-05T03:36:26.974Z,997.9
2017-07-05T03:36:47.243Z,997.8
2017-07-05T03:37:07.557Z,997.9
2017-07-05T03:37:28.436Z,997.8
2017-07-05T03:37:48.755Z,997.8
2017-07-05T03:38:09.033Z,997.9
2017-07-05T03:38:29.352Z,997.8
2017-07-05T03:38:50.377Z,997.9
2017-07-05T03:39:11.441Z,997.8
2017-07-05T03:39:31.713Z,997.8
2017-07-05T03:39:52.501Z,997.8
2017-07-05T03:40:12.855Z,997.8
2017-07-05T03:40:32.853Z,997.8
2017-07-05T03:40:53.199Z,997.8
2017-07-05T03:41:13.507Z,997.8
2017-07-05T03:41:33.507Z,997.8
2017-07-05T03:41:53.859Z,997.8
2017-07-05T03:42:14.796Z,997.8
2017-07-05T03:42:35.876Z,997.8
2017-07-05T03:42:56.181Z,997.8
2017-07-05T03:43:16.619Z,997.8
2017-07-05T03:43:36.954Z,997.8
2017-07-05T03:43:58.087Z,997.8
2017-07-05T03:44:19.394Z,997.8
2017-07-05T03:44:39.660Z,997.8
2017-07-05T03:44:59.947Z,997.8
2017-07-05T03:45:20.265Z,997.8
2017-07-05T03:45:40.534Z,997.8
2017-07-05T03:46:00.822Z,997.8
2017-07-05T03:46:21.115Z,997.8
2017-07-05T03:46:42.428Z,997.8
2017-07-05T03:47:03.453Z,997.8
2017-07-05T03:47:23.771Z,997.8
2017-07-05T03:47:44.047Z,997.8
2017-07-05T03:48:04.331Z,997.9
2017-07-05T03:48:24.619Z,997.9
2017-07-05T03:48:45.018Z,997.9
2017-07-05T03:49:06.035Z,997.9
2017-07-05T03:49:26.351Z,997.9
2017-07-05T03:49:46.666Z,997.9
2017-07-05T03:50:06.967Z,997.9
2017-07-05T03:50:27.253Z,997.9
2017-07-05T03:50:47.518Z,997.9
2017-07-05T03:51:07.786Z,997.9
2017-07-05T03:51:28.107Z,997.9
2017-07-05T03:51:48.403Z,997.9
2017-07-05T03:52:08.754Z,997.9
2017-07-05T03:52:29.032Z,997.9
2017-07-05T03:52:50.036Z,997.9
2017-07-05T03:53:10.328Z,997.9
2017-07-05T03:53:31.466Z,997.9
2017-07-05T03:53:51.740Z,997.9
2017-07-05T03:54:12.014Z,997.9
2017-07-05T03:54:32.275Z,997.9
2017-07-05T03:54:52.537Z,997.9
2017-07-05T03:55:12.846Z,997.9
2017-07-05T03:55:33.195Z,997.9
2017-07-05T03:55:53.466Z,997.8
2017-07-05T03:56:15.054Z,997.9
2017-07-05T03:56:35.322Z,997.9
2017-07-05T03:56:55.639Z,997.8
2017-07-05T03:57:15.926Z,997.8
2017-07-05T03:57:36.247Z,997.8
2017-07-05T03:57:56.530Z,997.8
2017-07-05T03:58:16.839Z,997.9
2017-07-05T03:58:37.100Z,997.8
2017-07-05T03:58:57.385Z,997.8
2017-07-05T03:59:17.669Z,997.8
2017-07-05T03:59:37.952Z,997.8
2017-07-05T03:59:59.015Z,997.8
2017-07-05T04:00:19.331Z,997.9
2017-07-05T04:00:39.623Z,997.8
2017-07-05T04:00:59.906Z,997.8
2017-07-05T04:01:20.199Z,997.8
2017-07-05T04:01:40.491Z,997.8
2017-07-05T04:02:01.547Z,997.9
2017-07-05T04:02:21.841Z,997.9
2017-07-05T04:02:42.129Z,997.9
2017-07-05T04:03:02.403Z,997.9
2017-07-05T04:03:22.699Z,997.9
2017-07-05T04:03:44.010Z,997.8
2017-07-05T04:04:04.926Z,997.9
2017-07-05T04:04:25.201Z,997.9
2017-07-05T04:04:45.475Z,997.9
2017-07-05T04:05:05.473Z,997.9
2017-07-05T04:05:25.803Z,997.8
2017-07-05T04:05:46.131Z,997.9
2017-07-05T04:06:06.948Z,997.9
2017-07-05T04:06:27.334Z,997.9
2017-07-05T04:06:47.586Z,997.9
2017-07-05T04:07:08.467Z,997.9
2017-07-05T04:07:29.478Z,997.8
2017-07-05T04:07:50.399Z,997.8
2017-07-05T04:08:11.469Z,997.8
2017-07-05T04:08:31.757Z,997.8
2017-07-05T04:08:52.083Z,997.8
2017-07-05T04:09:12.347Z,997.8
2017-07-05T04:09:32.677Z,997.8
2017-07-05T04:09:52.970Z,997.8
2017-07-05T04:10:13.395Z,997.8
2017-07-05T04:10:33.703Z,997.8
2017-07-05T04:10:53.981Z,997.8
2017-07-05T04:11:14.320Z,997.8
2017-07-05T04:11:34.653Z,997.8
2017-07-05T04:11:55.522Z,997.8
2017-07-05T04:12:15.852Z,997.8
2017-07-05T04:12:37.764Z,997.8
2017-07-05T04:12:58.155Z,997.8
2017-07-05T04:13:18.495Z,997.8
2017-07-05T04:13:38.496Z,997.8
2017-07-05T04:13:58.784Z,997.9
2017-07-05T04:14:19.069Z,997.9
2017-07-05T04:14:39.372Z,997.9
2017-07-05T04:14:59.705Z,997.9
2017-07-05T04:15:20.091Z,997.9
2017-07-05T04:15:41.022Z,997.9
2017-07-05T04:16:04.026Z,997.9
2017-07-05T04:16:24.359Z,997.9
2017-07-05T04:16:44.632Z,997.9
2017-07-05T04:17:04.923Z,997.9
2017-07-05T04:17:25.210Z,997.9
2017-07-05T04:17:45.554Z,997.9
2017-07-05T04:18:06.383Z,997.9
2017-07-05T04:18:26.651Z,997.9
2017-07-05T04:18:47.553Z,997.9
2017-07-05T04:19:07.837Z,997.9
2017-07-05T04:19:28.222Z,997.9
2017-07-05T04:19:48.505Z,997.9
2017-07-05T04:20:08.502Z,997.9
2017-07-05T04:20:28.786Z,997.8
2017-07-05T04:20:49.080Z,997.9
2017-07-05T04:21:09.446Z,997.8
2017-07-05T04:21:29.717Z,997.9
2017-07-05T04:21:50.047Z,997.9
2017-07-05T04:22:10.358Z,997.9
2017-07-05T04:22:30.635Z,997.9
2017-07-05T04:22:50.908Z,997.9
2017-07-05T04:23:12.059Z,997.9
2017-07-05T04:23:32.399Z,997.9
2017-07-05T04:23:52.685Z,997.9
2017-07-05T04:24:12.999Z,997.9
2017-07-05T04:24:33.354Z,997.9
2017-07-05T04:24:53.689Z,997.9
2017-07-05T04:25:14.057Z,997.9
2017-07-05T04:25:34.342Z,997.9
2017-07-05T04:25:54.673Z,997.9
2017-07-05T04:26:14.971Z,997.9